sensor_id;sensor_type;location;lat;lon;timestamp;P1;durP1;ratioP1;P2;durP2;ratioP2
61702;SDS011;47622;47.726;3.298;2023-02-01T00:01:12;14.07;;;3.95;;
61702;SDS011;47622;47.726;3.298;2023-02-01T00:03:37;14.70;;;3.70;;
61702;SDS011;47622;47.726;3.298;2023-02-01T00:06:03;13.98;;;4.00;;
61702;SDS011;47622;47.726;3.298;2023-02-01T00:08:29;13.45;;;3.50;;
61702;SDS011;47622;47.726;3.298;2023-02-01T00:11:02;9.68;;;3.17;;
61702;SDS011;47622;47.726;3.298;2023-02-01T00:13:30;13.52;;;4.03;;
61702;SDS011;47622;47.726;3.298;2023-02-01T00:18:37;12.85;;;3.80;;
61702;SDS011;47622;47.726;3.298;2023-02-01T00:21:03;12.45;;;3.70;;
61702;SDS011;47622;47.726;3.298;2023-02-01T00:23:31;22.80;;;4.30;;
61702;SDS011;47622;47.726;3.298;2023-02-01T00:26:00;16.50;;;5.70;;
61702;SDS011;47622;47.726;3.298;2023-02-01T00:28:26;12.90;;;4.50;;
61702;SDS011;47622;47.726;3.298;2023-02-01T00:30:59;13.40;;;4.38;;
61702;SDS011;47622;47.726;3.298;2023-02-01T00:33:25;11.27;;;4.18;;
61702;SDS011;47622;47.726;3.298;2023-02-01T00:35:55;13.80;;;4.55;;
61702;SDS011;47622;47.726;3.298;2023-02-01T00:38:25;10.15;;;4.65;;
61702;SDS011;47622;47.726;3.298;2023-02-01T00:40:51;11.85;;;4.10;;
61702;SDS011;47622;47.726;3.298;2023-02-01T00:43:17;17.10;;;4.85;;
61702;SDS011;47622;47.726;3.298;2023-02-01T00:45:42;6.18;;;3.53;;
61702;SDS011;47622;47.726;3.298;2023-02-01T00:48:10;12.27;;;4.70;;
61702;SDS011;47622;47.726;3.298;2023-02-01T00:50:35;11.95;;;4.35;;
61702;SDS011;47622;47.726;3.298;2023-02-01T00:53:01;16.73;;;4.72;;
61702;SDS011;47622;47.726;3.298;2023-02-01T00:55:26;14.73;;;4.85;;
61702;SDS011;47622;47.726;3.298;2023-02-01T00:57:52;19.60;;;5.28;;
61702;SDS011;47622;47.726;3.298;2023-02-01T01:00:18;19.05;;;4.68;;
61702;SDS011;47622;47.726;3.298;2023-02-01T01:02:43;15.85;;;4.95;;
61702;SDS011;47622;47.726;3.298;2023-02-01T01:05:09;17.80;;;5.35;;
61702;SDS011;47622;47.726;3.298;2023-02-01T01:07:35;15.73;;;5.10;;
61702;SDS011;47622;47.726;3.298;2023-02-01T01:10:00;16.80;;;5.38;;
61702;SDS011;47622;47.726;3.298;2023-02-01T01:12:26;11.13;;;4.97;;
61702;SDS011;47622;47.726;3.298;2023-02-01T01:14:52;16.65;;;5.45;;
61702;SDS011;47622;47.726;3.298;2023-02-01T01:17:17;13.77;;;5.10;;
61702;SDS011;47622;47.726;3.298;2023-02-01T01:19:43;14.20;;;5.03;;
61702;SDS011;47622;47.726;3.298;2023-02-01T01:22:08;14.35;;;5.43;;
61702;SDS011;47622;47.726;3.298;2023-02-01T01:24:34;14.57;;;5.45;;
61702;SDS011;47622;47.726;3.298;2023-02-01T01:27:00;14.60;;;5.00;;
61702;SDS011;47622;47.726;3.298;2023-02-01T01:29:26;16.27;;;5.35;;
61702;SDS011;47622;47.726;3.298;2023-02-01T01:31:52;12.45;;;5.25;;
61702;SDS011;47622;47.726;3.298;2023-02-01T01:34:17;14.93;;;5.03;;
61702;SDS011;47622;47.726;3.298;2023-02-01T01:36:43;11.85;;;5.82;;
61702;SDS011;47622;47.726;3.298;2023-02-01T01:39:08;15.15;;;5.50;;
61702;SDS011;47622;47.726;3.298;2023-02-01T01:41:34;16.80;;;5.65;;
61702;SDS011;47622;47.726;3.298;2023-02-01T01:44:04;10.05;;;5.07;;
61702;SDS011;47622;47.726;3.298;2023-02-01T01:46:32;10.75;;;4.78;;
61702;SDS011;47622;47.726;3.298;2023-02-01T01:49:14;15.18;;;5.38;;
61702;SDS011;47622;47.726;3.298;2023-02-01T01:51:46;11.20;;;5.30;;
61702;SDS011;47622;47.726;3.298;2023-02-01T01:54:19;12.93;;;5.18;;
61702;SDS011;47622;47.726;3.298;2023-02-01T01:56:53;15.88;;;5.88;;
61702;SDS011;47622;47.726;3.298;2023-02-01T01:59:22;17.48;;;5.32;;
61702;SDS011;47622;47.726;3.298;2023-02-01T02:01:50;13.85;;;5.43;;
61702;SDS011;47622;47.726;3.298;2023-02-01T02:04:16;20.00;;;5.80;;
61702;SDS011;47622;47.726;3.298;2023-02-01T02:06:44;14.82;;;5.43;;
61702;SDS011;47622;47.726;3.298;2023-02-01T02:09:23;13.40;;;4.63;;
61702;SDS011;47622;47.726;3.298;2023-02-01T02:11:48;18.00;;;5.97;;
61702;SDS011;47622;47.726;3.298;2023-02-01T02:14:15;16.95;;;6.15;;
61702;SDS011;47622;47.726;3.298;2023-02-01T02:17:05;11.80;;;5.18;;
61702;SDS011;47622;47.726;3.298;2023-02-01T02:31:27;17.85;;;5.50;;
61702;SDS011;47622;47.726;3.298;2023-02-01T02:42:47;17.88;;;5.22;;
61702;SDS011;47622;47.726;3.298;2023-02-01T02:45:18;15.10;;;6.10;;
61702;SDS011;47622;47.726;3.298;2023-02-01T02:48:32;18.58;;;6.35;;
61702;SDS011;47622;47.726;3.298;2023-02-01T02:54:24;16.25;;;5.85;;
61702;SDS011;47622;47.726;3.298;2023-02-01T02:57:12;19.20;;;6.22;;
61702;SDS011;47622;47.726;3.298;2023-02-01T03:00:00;18.98;;;6.40;;
61702;SDS011;47622;47.726;3.298;2023-02-01T03:02:48;15.77;;;6.68;;
61702;SDS011;47622;47.726;3.298;2023-02-01T03:05:35;16.75;;;6.88;;
61702;SDS011;47622;47.726;3.298;2023-02-01T03:08:09;20.02;;;6.85;;
61702;SDS011;47622;47.726;3.298;2023-02-01T03:10:44;20.60;;;7.40;;
61702;SDS011;47622;47.726;3.298;2023-02-01T03:16:06;16.92;;;6.70;;
61702;SDS011;47622;47.726;3.298;2023-02-01T03:24:25;20.90;;;7.60;;
61702;SDS011;47622;47.726;3.298;2023-02-01T03:27:00;13.88;;;7.53;;
61702;SDS011;47622;47.726;3.298;2023-02-01T03:29:33;20.27;;;7.40;;
61702;SDS011;47622;47.726;3.298;2023-02-01T03:32:03;19.42;;;8.15;;
61702;SDS011;47622;47.726;3.298;2023-02-01T03:34:29;18.73;;;8.43;;
61702;SDS011;47622;47.726;3.298;2023-02-01T03:36:58;19.55;;;7.97;;
61702;SDS011;47622;47.726;3.298;2023-02-01T03:39:32;21.17;;;8.32;;
61702;SDS011;47622;47.726;3.298;2023-02-01T03:42:21;19.45;;;7.25;;
61702;SDS011;47622;47.726;3.298;2023-02-01T03:44:56;17.83;;;8.30;;
61702;SDS011;47622;47.726;3.298;2023-02-01T03:47:43;18.67;;;7.60;;
61702;SDS011;47622;47.726;3.298;2023-02-01T03:50:14;18.27;;;7.55;;
61702;SDS011;47622;47.726;3.298;2023-02-01T03:53:04;21.33;;;8.52;;
61702;SDS011;47622;47.726;3.298;2023-02-01T03:55:33;13.43;;;7.80;;
61702;SDS011;47622;47.726;3.298;2023-02-01T03:58:01;14.50;;;7.45;;
61702;SDS011;47622;47.726;3.298;2023-02-01T04:00:32;24.33;;;8.80;;
61702;SDS011;47622;47.726;3.298;2023-02-01T04:02:58;20.13;;;8.30;;
61702;SDS011;47622;47.726;3.298;2023-02-01T04:05:23;18.65;;;7.85;;
61702;SDS011;47622;47.726;3.298;2023-02-01T04:07:49;16.30;;;8.18;;
61702;SDS011;47622;47.726;3.298;2023-02-01T04:10:15;15.82;;;7.45;;
61702;SDS011;47622;47.726;3.298;2023-02-01T04:12:41;17.30;;;7.90;;
61702;SDS011;47622;47.726;3.298;2023-02-01T04:15:07;13.35;;;7.38;;
61702;SDS011;47622;47.726;3.298;2023-02-01T04:17:33;21.50;;;8.32;;
61702;SDS011;47622;47.726;3.298;2023-02-01T04:19:59;21.30;;;7.95;;
61702;SDS011;47622;47.726;3.298;2023-02-01T04:22:24;16.40;;;6.90;;
61702;SDS011;47622;47.726;3.298;2023-02-01T04:24:50;19.15;;;8.05;;
61702;SDS011;47622;47.726;3.298;2023-02-01T04:27:16;24.45;;;8.88;;
61702;SDS011;47622;47.726;3.298;2023-02-01T04:29:41;16.90;;;8.25;;
61702;SDS011;47622;47.726;3.298;2023-02-01T04:32:07;16.27;;;7.15;;
61702;SDS011;47622;47.726;3.298;2023-02-01T04:34:33;24.13;;;9.30;;
61702;SDS011;47622;47.726;3.298;2023-02-01T04:36:58;20.15;;;7.93;;
61702;SDS011;47622;47.726;3.298;2023-02-01T04:39:24;13.25;;;7.38;;
61702;SDS011;47622;47.726;3.298;2023-02-01T04:41:50;16.20;;;8.05;;
61702;SDS011;47622;47.726;3.298;2023-02-01T04:44:16;16.90;;;7.80;;
61702;SDS011;47622;47.726;3.298;2023-02-01T04:46:43;18.65;;;8.13;;
61702;SDS011;47622;47.726;3.298;2023-02-01T04:49:10;16.95;;;7.70;;
61702;SDS011;47622;47.726;3.298;2023-02-01T04:51:36;18.85;;;8.10;;
61702;SDS011;47622;47.726;3.298;2023-02-01T04:54:03;14.98;;;7.70;;
61702;SDS011;47622;47.726;3.298;2023-02-01T04:56:29;17.27;;;8.43;;
61702;SDS011;47622;47.726;3.298;2023-02-01T04:58:55;17.23;;;8.20;;
61702;SDS011;47622;47.726;3.298;2023-02-01T05:01:21;21.90;;;8.35;;
61702;SDS011;47622;47.726;3.298;2023-02-01T05:03:47;22.67;;;9.07;;
61702;SDS011;47622;47.726;3.298;2023-02-01T05:06:13;26.73;;;9.57;;
61702;SDS011;47622;47.726;3.298;2023-02-01T05:08:38;23.70;;;9.25;;
61702;SDS011;47622;47.726;3.298;2023-02-01T05:11:04;19.25;;;8.52;;
61702;SDS011;47622;47.726;3.298;2023-02-01T05:13:30;27.92;;;9.88;;
61702;SDS011;47622;47.726;3.298;2023-02-01T05:16:14;24.15;;;9.55;;
61702;SDS011;47622;47.726;3.298;2023-02-01T05:18:40;21.73;;;8.45;;
61702;SDS011;47622;47.726;3.298;2023-02-01T05:21:05;21.15;;;8.05;;
61702;SDS011;47622;47.726;3.298;2023-02-01T05:23:31;22.98;;;8.05;;
61702;SDS011;47622;47.726;3.298;2023-02-01T05:26:00;15.88;;;8.02;;
61702;SDS011;47622;47.726;3.298;2023-02-01T05:28:27;22.08;;;8.32;;
61702;SDS011;47622;47.726;3.298;2023-02-01T05:30:53;22.52;;;8.57;;
61702;SDS011;47622;47.726;3.298;2023-02-01T05:33:19;18.65;;;8.75;;
61702;SDS011;47622;47.726;3.298;2023-02-01T05:35:45;16.45;;;8.15;;
61702;SDS011;47622;47.726;3.298;2023-02-01T05:38:11;22.65;;;7.32;;
61702;SDS011;47622;47.726;3.298;2023-02-01T05:40:36;18.13;;;6.78;;
61702;SDS011;47622;47.726;3.298;2023-02-01T05:43:02;28.60;;;8.90;;
61702;SDS011;47622;47.726;3.298;2023-02-01T05:45:28;20.63;;;7.90;;
61702;SDS011;47622;47.726;3.298;2023-02-01T05:47:53;20.27;;;7.30;;
61702;SDS011;47622;47.726;3.298;2023-02-01T05:50:19;17.45;;;7.65;;
61702;SDS011;47622;47.726;3.298;2023-02-01T05:52:44;18.63;;;7.10;;
61702;SDS011;47622;47.726;3.298;2023-02-01T05:55:10;18.70;;;7.22;;
61702;SDS011;47622;47.726;3.298;2023-02-01T05:57:35;23.63;;;9.75;;
61702;SDS011;47622;47.726;3.298;2023-02-01T06:00:02;20.63;;;7.22;;
61702;SDS011;47622;47.726;3.298;2023-02-01T06:02:28;19.52;;;7.60;;
61702;SDS011;47622;47.726;3.298;2023-02-01T06:04:54;20.98;;;7.60;;
61702;SDS011;47622;47.726;3.298;2023-02-01T06:07:19;17.40;;;6.88;;
61702;SDS011;47622;47.726;3.298;2023-02-01T06:09:45;15.40;;;6.60;;
61702;SDS011;47622;47.726;3.298;2023-02-01T06:12:10;14.35;;;6.55;;
61702;SDS011;47622;47.726;3.298;2023-02-01T06:14:37;16.73;;;7.10;;
61702;SDS011;47622;47.726;3.298;2023-02-01T06:17:03;14.25;;;6.45;;
61702;SDS011;47622;47.726;3.298;2023-02-01T06:19:28;22.02;;;8.23;;
61702;SDS011;47622;47.726;3.298;2023-02-01T06:21:54;14.75;;;6.75;;
61702;SDS011;47622;47.726;3.298;2023-02-01T06:24:19;16.48;;;6.93;;
61702;SDS011;47622;47.726;3.298;2023-02-01T06:26:45;17.83;;;6.75;;
61702;SDS011;47622;47.726;3.298;2023-02-01T06:29:11;16.95;;;7.03;;
61702;SDS011;47622;47.726;3.298;2023-02-01T06:31:37;16.45;;;6.97;;
61702;SDS011;47622;47.726;3.298;2023-02-01T06:34:02;16.00;;;5.53;;
61702;SDS011;47622;47.726;3.298;2023-02-01T06:36:28;11.52;;;5.50;;
61702;SDS011;47622;47.726;3.298;2023-02-01T06:38:54;12.90;;;6.47;;
61702;SDS011;47622;47.726;3.298;2023-02-01T06:41:21;16.98;;;6.40;;
61702;SDS011;47622;47.726;3.298;2023-02-01T06:43:48;16.52;;;6.50;;
61702;SDS011;47622;47.726;3.298;2023-02-01T06:46:13;15.52;;;5.47;;
61702;SDS011;47622;47.726;3.298;2023-02-01T06:48:39;20.38;;;5.70;;
61702;SDS011;47622;47.726;3.298;2023-02-01T06:51:05;16.10;;;6.20;;
61702;SDS011;47622;47.726;3.298;2023-02-01T06:53:30;17.48;;;5.80;;
61702;SDS011;47622;47.726;3.298;2023-02-01T06:55:57;17.55;;;6.28;;
61702;SDS011;47622;47.726;3.298;2023-02-01T06:58:24;14.07;;;5.60;;
61702;SDS011;47622;47.726;3.298;2023-02-01T07:00:53;16.45;;;6.20;;
61702;SDS011;47622;47.726;3.298;2023-02-01T07:03:19;13.15;;;6.78;;
61702;SDS011;47622;47.726;3.298;2023-02-01T07:05:45;14.07;;;5.43;;
61702;SDS011;47622;47.726;3.298;2023-02-01T07:08:10;15.15;;;6.05;;
61702;SDS011;47622;47.726;3.298;2023-02-01T07:10:36;22.08;;;6.97;;
61702;SDS011;47622;47.726;3.298;2023-02-01T07:13:02;11.23;;;6.20;;
61702;SDS011;47622;47.726;3.298;2023-02-01T07:15:28;16.92;;;6.28;;
61702;SDS011;47622;47.726;3.298;2023-02-01T07:17:56;16.45;;;5.60;;
61702;SDS011;47622;47.726;3.298;2023-02-01T07:20:22;17.27;;;6.22;;
61702;SDS011;47622;47.726;3.298;2023-02-01T07:22:48;12.52;;;5.38;;
61702;SDS011;47622;47.726;3.298;2023-02-01T07:25:13;9.32;;;5.07;;
61702;SDS011;47622;47.726;3.298;2023-02-01T07:27:39;12.65;;;5.45;;
61702;SDS011;47622;47.726;3.298;2023-02-01T07:30:05;15.25;;;5.90;;
61702;SDS011;47622;47.726;3.298;2023-02-01T07:32:31;14.40;;;5.97;;
61702;SDS011;47622;47.726;3.298;2023-02-01T07:34:57;16.83;;;5.28;;
61702;SDS011;47622;47.726;3.298;2023-02-01T07:37:23;16.30;;;5.72;;
61702;SDS011;47622;47.726;3.298;2023-02-01T07:39:49;13.52;;;5.57;;
61702;SDS011;47622;47.726;3.298;2023-02-01T07:42:16;17.25;;;5.95;;
61702;SDS011;47622;47.726;3.298;2023-02-01T07:44:41;18.05;;;5.65;;
61702;SDS011;47622;47.726;3.298;2023-02-01T07:47:07;10.73;;;5.18;;
61702;SDS011;47622;47.726;3.298;2023-02-01T07:49:32;18.77;;;5.47;;
61702;SDS011;47622;47.726;3.298;2023-02-01T07:51:58;13.00;;;5.38;;
61702;SDS011;47622;47.726;3.298;2023-02-01T07:54:24;15.43;;;5.40;;
61702;SDS011;47622;47.726;3.298;2023-02-01T07:56:49;20.52;;;6.90;;
61702;SDS011;47622;47.726;3.298;2023-02-01T07:59:15;12.75;;;4.80;;
61702;SDS011;47622;47.726;3.298;2023-02-01T08:01:41;16.02;;;6.65;;
61702;SDS011;47622;47.726;3.298;2023-02-01T08:04:07;20.35;;;6.30;;
61702;SDS011;47622;47.726;3.298;2023-02-01T08:06:35;17.92;;;5.93;;
61702;SDS011;47622;47.726;3.298;2023-02-01T08:09:01;24.17;;;5.57;;
61702;SDS011;47622;47.726;3.298;2023-02-01T08:11:28;16.27;;;5.43;;
61702;SDS011;47622;47.726;3.298;2023-02-01T08:13:54;15.27;;;4.93;;
61702;SDS011;47622;47.726;3.298;2023-02-01T08:16:20;17.70;;;5.13;;
61702;SDS011;47622;47.726;3.298;2023-02-01T08:18:46;12.68;;;5.10;;
61702;SDS011;47622;47.726;3.298;2023-02-01T08:21:13;13.23;;;5.20;;
61702;SDS011;47622;47.726;3.298;2023-02-01T08:23:43;16.10;;;5.10;;
61702;SDS011;47622;47.726;3.298;2023-02-01T08:26:14;16.88;;;5.60;;
61702;SDS011;47622;47.726;3.298;2023-02-01T08:28:42;17.98;;;5.78;;
61702;SDS011;47622;47.726;3.298;2023-02-01T08:31:11;16.52;;;5.05;;
61702;SDS011;47622;47.726;3.298;2023-02-01T08:33:39;14.73;;;5.00;;
61702;SDS011;47622;47.726;3.298;2023-02-01T08:36:06;17.90;;;5.22;;
61702;SDS011;47622;47.726;3.298;2023-02-01T08:38:37;17.35;;;4.70;;
61702;SDS011;47622;47.726;3.298;2023-02-01T08:41:11;18.33;;;6.45;;
61702;SDS011;47622;47.726;3.298;2023-02-01T08:43:39;11.18;;;4.68;;
61702;SDS011;47622;47.726;3.298;2023-02-01T08:46:05;14.35;;;4.80;;
61702;SDS011;47622;47.726;3.298;2023-02-01T08:48:32;17.58;;;4.85;;
61702;SDS011;47622;47.726;3.298;2023-02-01T08:51:00;15.55;;;4.15;;
61702;SDS011;47622;47.726;3.298;2023-02-01T08:53:30;17.80;;;4.55;;
61702;SDS011;47622;47.726;3.298;2023-02-01T08:55:56;15.23;;;4.50;;
61702;SDS011;47622;47.726;3.298;2023-02-01T08:58:22;15.65;;;4.43;;
61702;SDS011;47622;47.726;3.298;2023-02-01T09:00:47;19.85;;;4.63;;
61702;SDS011;47622;47.726;3.298;2023-02-01T09:03:14;14.35;;;4.70;;
61702;SDS011;47622;47.726;3.298;2023-02-01T09:05:40;12.02;;;3.92;;
61702;SDS011;47622;47.726;3.298;2023-02-01T09:08:06;13.50;;;4.45;;
61702;SDS011;47622;47.726;3.298;2023-02-01T09:10:32;14.30;;;4.85;;
61702;SDS011;47622;47.726;3.298;2023-02-01T09:12:58;13.30;;;4.50;;
61702;SDS011;47622;47.726;3.298;2023-02-01T09:15:24;17.48;;;4.18;;
61702;SDS011;47622;47.726;3.298;2023-02-01T09:17:50;11.85;;;3.80;;
61702;SDS011;47622;47.726;3.298;2023-02-01T09:20:15;14.98;;;4.43;;
61702;SDS011;47622;47.726;3.298;2023-02-01T09:22:41;19.08;;;4.63;;
61702;SDS011;47622;47.726;3.298;2023-02-01T09:25:07;16.13;;;3.78;;
61702;SDS011;47622;47.726;3.298;2023-02-01T09:27:33;14.13;;;4.40;;
61702;SDS011;47622;47.726;3.298;2023-02-01T09:30:00;13.93;;;4.13;;
61702;SDS011;47622;47.726;3.298;2023-02-01T09:32:25;19.95;;;4.20;;
61702;SDS011;47622;47.726;3.298;2023-02-01T09:34:52;13.35;;;4.57;;
61702;SDS011;47622;47.726;3.298;2023-02-01T09:37:18;16.15;;;3.65;;
61702;SDS011;47622;47.726;3.298;2023-02-01T09:39:45;17.55;;;4.03;;
61702;SDS011;47622;47.726;3.298;2023-02-01T09:42:59;11.98;;;3.90;;
61702;SDS011;47622;47.726;3.298;2023-02-01T09:45:17;22.77;;;4.45;;
61702;SDS011;47622;47.726;3.298;2023-02-01T09:47:53;14.43;;;4.15;;
61702;SDS011;47622;47.726;3.298;2023-02-01T09:50:22;17.98;;;4.30;;
61702;SDS011;47622;47.726;3.298;2023-02-01T09:52:57;21.60;;;4.22;;
61702;SDS011;47622;47.726;3.298;2023-02-01T09:55:38;13.93;;;4.13;;
61702;SDS011;47622;47.726;3.298;2023-02-01T09:58:09;18.52;;;3.92;;
61702;SDS011;47622;47.726;3.298;2023-02-01T10:00:44;16.25;;;4.65;;
61702;SDS011;47622;47.726;3.298;2023-02-01T10:03:17;14.18;;;4.00;;
61702;SDS011;47622;47.726;3.298;2023-02-01T10:11:13;13.38;;;4.25;;
61702;SDS011;47622;47.726;3.298;2023-02-01T10:16:30;13.63;;;3.72;;
61702;SDS011;47622;47.726;3.298;2023-02-01T10:19:18;12.65;;;4.18;;
61702;SDS011;47622;47.726;3.298;2023-02-01T10:26:46;14.13;;;3.58;;
61702;SDS011;47622;47.726;3.298;2023-02-01T10:29:19;18.88;;;4.18;;
61702;SDS011;47622;47.726;3.298;2023-02-01T10:31:47;10.13;;;3.40;;
61702;SDS011;47622;47.726;3.298;2023-02-01T10:39:22;18.50;;;3.78;;
61702;SDS011;47622;47.726;3.298;2023-02-01T10:41:48;20.65;;;4.40;;
61702;SDS011;47622;47.726;3.298;2023-02-01T10:44:15;18.45;;;3.97;;
61702;SDS011;47622;47.726;3.298;2023-02-01T10:46:44;16.00;;;3.55;;
61702;SDS011;47622;47.726;3.298;2023-02-01T10:49:22;11.27;;;3.38;;
61702;SDS011;47622;47.726;3.298;2023-02-01T10:51:55;16.80;;;3.33;;
61702;SDS011;47622;47.726;3.298;2023-02-01T10:54:34;13.98;;;3.17;;
61702;SDS011;47622;47.726;3.298;2023-02-01T10:57:06;11.52;;;3.55;;
61702;SDS011;47622;47.726;3.298;2023-02-01T10:59:44;18.65;;;3.83;;
61702;SDS011;47622;47.726;3.298;2023-02-01T11:02:19;26.98;;;5.47;;
61702;SDS011;47622;47.726;3.298;2023-02-01T11:04:58;13.82;;;4.03;;
61702;SDS011;47622;47.726;3.298;2023-02-01T11:07:29;11.73;;;3.65;;
61702;SDS011;47622;47.726;3.298;2023-02-01T11:09:56;21.52;;;4.55;;
61702;SDS011;47622;47.726;3.298;2023-02-01T11:12:25;10.55;;;3.28;;
61702;SDS011;47622;47.726;3.298;2023-02-01T11:17:44;15.07;;;3.22;;
61702;SDS011;47622;47.726;3.298;2023-02-01T11:20:15;14.27;;;3.15;;
61702;SDS011;47622;47.726;3.298;2023-02-01T11:22:54;23.30;;;5.28;;
61702;SDS011;47622;47.726;3.298;2023-02-01T11:25:22;15.85;;;3.47;;
61702;SDS011;47622;47.726;3.298;2023-02-01T11:27:50;20.75;;;4.22;;
61702;SDS011;47622;47.726;3.298;2023-02-01T11:30:21;16.17;;;4.05;;
61702;SDS011;47622;47.726;3.298;2023-02-01T11:32:56;21.30;;;3.58;;
61702;SDS011;47622;47.726;3.298;2023-02-01T11:35:23;15.57;;;3.15;;
61702;SDS011;47622;47.726;3.298;2023-02-01T11:37:55;17.75;;;4.63;;
61702;SDS011;47622;47.726;3.298;2023-02-01T11:40:36;20.10;;;3.78;;
61702;SDS011;47622;47.726;3.298;2023-02-01T11:45:42;10.60;;;3.25;;
61702;SDS011;47622;47.726;3.298;2023-02-01T11:48:23;15.57;;;3.15;;
61702;SDS011;47622;47.726;3.298;2023-02-01T11:51:00;18.33;;;4.43;;
61702;SDS011;47622;47.726;3.298;2023-02-01T11:56:30;16.52;;;3.70;;
61702;SDS011;47622;47.726;3.298;2023-02-01T12:35:03;11.90;;;3.08;;
61702;SDS011;47622;47.726;3.298;2023-02-01T12:38:04;16.52;;;3.22;;
61702;SDS011;47622;47.726;3.298;2023-02-01T12:45:55;17.90;;;3.10;;
61702;SDS011;47622;47.726;3.298;2023-02-01T12:51:07;12.38;;;2.88;;
61702;SDS011;47622;47.726;3.298;2023-02-01T12:53:44;12.80;;;2.97;;
61702;SDS011;47622;47.726;3.298;2023-02-01T12:56:14;24.08;;;3.83;;
61702;SDS011;47622;47.726;3.298;2023-02-01T12:58:53;18.55;;;5.53;;
61702;SDS011;47622;47.726;3.298;2023-02-01T13:01:35;13.50;;;3.45;;
61702;SDS011;47622;47.726;3.298;2023-02-01T13:04:18;12.23;;;3.00;;
61702;SDS011;47622;47.726;3.298;2023-02-01T13:07:01;14.05;;;3.13;;
61702;SDS011;47622;47.726;3.298;2023-02-01T13:09:43;15.90;;;4.03;;
61702;SDS011;47622;47.726;3.298;2023-02-01T13:12:19;13.45;;;3.50;;
61702;SDS011;47622;47.726;3.298;2023-02-01T13:14:50;16.05;;;3.50;;
61702;SDS011;47622;47.726;3.298;2023-02-01T13:17:24;13.10;;;4.03;;
61702;SDS011;47622;47.726;3.298;2023-02-01T13:24:59;14.38;;;3.30;;
61702;SDS011;47622;47.726;3.298;2023-02-01T13:27:46;17.08;;;3.28;;
61702;SDS011;47622;47.726;3.298;2023-02-01T13:35:46;12.95;;;3.20;;
61702;SDS011;47622;47.726;3.298;2023-02-01T13:38:38;9.23;;;3.03;;
61702;SDS011;47622;47.726;3.298;2023-02-01T13:41:49;21.05;;;4.05;;
61702;SDS011;47622;47.726;3.298;2023-02-01T13:46:57;14.90;;;3.55;;
61702;SDS011;47622;47.726;3.298;2023-02-01T13:49:27;16.52;;;3.28;;
61702;SDS011;47622;47.726;3.298;2023-02-01T13:51:57;18.40;;;3.38;;
61702;SDS011;47622;47.726;3.298;2023-02-01T13:54:25;8.70;;;3.10;;
61702;SDS011;47622;47.726;3.298;2023-02-01T13:56:51;14.65;;;3.60;;
61702;SDS011;47622;47.726;3.298;2023-02-01T14:05:03;16.58;;;4.05;;
61702;SDS011;47622;47.726;3.298;2023-02-01T14:07:32;12.63;;;3.10;;
61702;SDS011;47622;47.726;3.298;2023-02-01T14:09:58;15.50;;;3.53;;
61702;SDS011;47622;47.726;3.298;2023-02-01T14:15:20;13.50;;;3.92;;
61702;SDS011;47622;47.726;3.298;2023-02-01T14:17:53;12.85;;;3.50;;
61702;SDS011;47622;47.726;3.298;2023-02-01T14:23:11;13.38;;;3.20;;
61702;SDS011;47622;47.726;3.298;2023-02-01T14:25:39;13.85;;;3.78;;
61702;SDS011;47622;47.726;3.298;2023-02-01T14:28:16;20.20;;;3.28;;
61702;SDS011;47622;47.726;3.298;2023-02-01T14:30:50;20.48;;;3.63;;
61702;SDS011;47622;47.726;3.298;2023-02-01T14:33:26;13.45;;;3.50;;
61702;SDS011;47622;47.726;3.298;2023-02-01T14:38:49;21.60;;;3.67;;
61702;SDS011;47622;47.726;3.298;2023-02-01T14:41:34;16.35;;;3.47;;
61702;SDS011;47622;47.726;3.298;2023-02-01T14:49:32;10.60;;;2.73;;
61702;SDS011;47622;47.726;3.298;2023-02-01T14:52:00;14.02;;;3.55;;
61702;SDS011;47622;47.726;3.298;2023-02-01T14:54:29;14.82;;;3.45;;
61702;SDS011;47622;47.726;3.298;2023-02-01T14:56:55;12.93;;;3.08;;
61702;SDS011;47622;47.726;3.298;2023-02-01T14:59:22;18.35;;;3.50;;
61702;SDS011;47622;47.726;3.298;2023-02-01T15:01:50;10.18;;;3.15;;
61702;SDS011;47622;47.726;3.298;2023-02-01T15:04:20;11.80;;;2.83;;
61702;SDS011;47622;47.726;3.298;2023-02-01T15:09:24;17.88;;;3.13;;
61702;SDS011;47622;47.726;3.298;2023-02-01T15:14:33;12.07;;;2.95;;
61702;SDS011;47622;47.726;3.298;2023-02-01T15:17:00;15.90;;;4.03;;
61702;SDS011;47622;47.726;3.298;2023-02-01T15:19:27;19.17;;;4.63;;
61702;SDS011;47622;47.726;3.298;2023-02-01T15:21:54;14.82;;;3.10;;
61702;SDS011;47622;47.726;3.298;2023-02-01T15:24:25;13.40;;;3.40;;
61702;SDS011;47622;47.726;3.298;2023-02-01T15:26:53;16.83;;;3.30;;
61702;SDS011;47622;47.726;3.298;2023-02-01T15:29:21;9.93;;;3.30;;
61702;SDS011;47622;47.726;3.298;2023-02-01T15:31:51;17.95;;;3.78;;
61702;SDS011;47622;47.726;3.298;2023-02-01T15:34:18;14.18;;;3.65;;
61702;SDS011;47622;47.726;3.298;2023-02-01T15:36:44;15.75;;;3.40;;
61702;SDS011;47622;47.726;3.298;2023-02-01T15:39:21;15.68;;;3.35;;
61702;SDS011;47622;47.726;3.298;2023-02-01T15:41:58;17.02;;;3.33;;
61702;SDS011;47622;47.726;3.298;2023-02-01T15:44:28;15.05;;;3.53;;
61702;SDS011;47622;47.726;3.298;2023-02-01T15:46:58;17.42;;;3.20;;
61702;SDS011;47622;47.726;3.298;2023-02-01T15:49:26;10.98;;;3.45;;
61702;SDS011;47622;47.726;3.298;2023-02-01T15:51:54;16.00;;;3.63;;
61702;SDS011;47622;47.726;3.298;2023-02-01T15:54:26;14.63;;;5.28;;
61702;SDS011;47622;47.726;3.298;2023-02-01T15:56:58;15.75;;;3.10;;
61702;SDS011;47622;47.726;3.298;2023-02-01T15:59:30;17.73;;;3.67;;
61702;SDS011;47622;47.726;3.298;2023-02-01T16:02:00;12.40;;;3.60;;
61702;SDS011;47622;47.726;3.298;2023-02-01T16:04:26;15.35;;;3.63;;
61702;SDS011;47622;47.726;3.298;2023-02-01T16:07:02;7.80;;;3.50;;
61702;SDS011;47622;47.726;3.298;2023-02-01T16:09:51;12.90;;;3.78;;
61702;SDS011;47622;47.726;3.298;2023-02-01T16:12:33;11.43;;;3.17;;
61702;SDS011;47622;47.726;3.298;2023-02-01T16:15:23;7.57;;;3.30;;
61702;SDS011;47622;47.726;3.298;2023-02-01T16:17:49;12.88;;;3.40;;
61702;SDS011;47622;47.726;3.298;2023-02-01T16:20:15;16.08;;;4.57;;
61702;SDS011;47622;47.726;3.298;2023-02-01T16:22:40;13.82;;;3.45;;
61702;SDS011;47622;47.726;3.298;2023-02-01T16:25:06;11.93;;;3.40;;
61702;SDS011;47622;47.726;3.298;2023-02-01T16:27:32;14.38;;;3.95;;
61702;SDS011;47622;47.726;3.298;2023-02-01T16:29:57;22.85;;;4.35;;
61702;SDS011;47622;47.726;3.298;2023-02-01T16:32:23;7.85;;;3.28;;
61702;SDS011;47622;47.726;3.298;2023-02-01T16:34:49;12.68;;;3.08;;
61702;SDS011;47622;47.726;3.298;2023-02-01T16:37:20;14.25;;;3.75;;
61702;SDS011;47622;47.726;3.298;2023-02-01T16:39:48;12.98;;;3.70;;
61702;SDS011;47622;47.726;3.298;2023-02-01T16:42:15;17.90;;;3.92;;
61702;SDS011;47622;47.726;3.298;2023-02-01T16:44:41;12.73;;;3.25;;
61702;SDS011;47622;47.726;3.298;2023-02-01T16:47:11;10.30;;;3.75;;
61702;SDS011;47622;47.726;3.298;2023-02-01T16:49:42;15.20;;;3.33;;
61702;SDS011;47622;47.726;3.298;2023-02-01T16:52:11;13.55;;;4.28;;
61702;SDS011;47622;47.726;3.298;2023-02-01T16:54:40;13.13;;;3.50;;
61702;SDS011;47622;47.726;3.298;2023-02-01T16:57:10;11.45;;;3.40;;
61702;SDS011;47622;47.726;3.298;2023-02-01T16:59:40;16.48;;;3.33;;
61702;SDS011;47622;47.726;3.298;2023-02-01T17:02:14;12.55;;;3.85;;
61702;SDS011;47622;47.726;3.298;2023-02-01T17:04:42;13.02;;;3.63;;
61702;SDS011;47622;47.726;3.298;2023-02-01T17:07:15;11.57;;;3.58;;
61702;SDS011;47622;47.726;3.298;2023-02-01T17:09:42;16.05;;;3.75;;
61702;SDS011;47622;47.726;3.298;2023-02-01T17:12:27;12.45;;;3.55;;
61702;SDS011;47622;47.726;3.298;2023-02-01T17:14:55;18.48;;;4.82;;